createdAt,value
2019-01-31T00:03:33.519Z,1.76
2019-01-31T00:09:29.663Z,1.81
2019-01-31T00:15:00.411Z,1.76
2019-01-31T00:20:40.998Z,1.72
2019-01-31T00:26:11.256Z,1.76
2019-01-31T00:31:45.081Z,1.72
2019-01-31T00:37:10.473Z,1.70
2019-01-31T00:42:38.399Z,1.60
2019-01-31T00:48:27.437Z,1.62
2019-01-31T00:53:54.052Z,1.60
2019-01-31T00:59:21.067Z,1.60
2019-01-31T01:04:59.185Z,1.66
2019-01-31T01:10:25.889Z,1.56
2019-01-31T01:15:59.733Z,1.67
2019-01-31T01:21:12.740Z,1.57
2019-01-31T01:26:43.982Z,1.65
2019-01-31T01:32:17.113Z,1.61
2019-01-31T01:38:13.401Z,1.58
2019-01-31T01:43:39.899Z,1.63
2019-01-31T01:48:59.314Z,1.49
2019-01-31T01:54:45.164Z,1.65
2019-01-31T02:00:26.523Z,1.74
2019-01-31T02:06:01.382Z,1.70
2019-01-31T02:11:49.421Z,1.65
2019-01-31T02:17:20.697Z,1.57
2019-01-31T02:22:46.626Z,1.46
2019-01-31T02:28:28.449Z,1.31
2019-01-31T02:34:24.582Z,1.38
2019-01-31T02:40:09.175Z,1.47
2019-01-31T02:45:55.076Z,1.63
2019-01-31T02:51:39.669Z,1.61
2019-01-31T02:56:55.876Z,1.50
2019-01-31T03:02:46.200Z,1.25
2019-01-31T03:08:34.852Z,1.62
2019-01-31T03:14:10.316Z,1.46
2019-01-31T03:19:32.501Z,1.48
2019-01-31T03:25:25.988Z,1.47
2019-01-31T03:31:06.695Z,1.40
2019-01-31T03:36:49.786Z,1.29
2019-01-31T03:42:36.552Z,1.27
2019-01-31T03:48:10.999Z,1.29
2019-01-31T03:53:42.790Z,1.43
2019-01-31T03:59:28.377Z,1.27
2019-01-31T04:04:55.287Z,1.13
2019-01-31T04:09:58.149Z,1.29
2019-01-31T04:15:01.827Z,1.31
2019-01-31T04:20:06.101Z,1.25
2019-01-31T04:25:09.513Z,1.28
2019-01-31T04:30:14.174Z,1.33
2019-01-31T04:35:17.377Z,1.32
2019-01-31T04:40:30.352Z,1.54
2019-01-31T04:45:25.324Z,1.59
2019-01-31T04:50:28.539Z,1.43
2019-01-31T04:55:32.078Z,1.30
2019-01-31T05:00:35.467Z,1.48
2019-01-31T05:05:38.399Z,1.68
2019-01-31T05:10:43.330Z,1.40
2019-01-31T05:15:46.707Z,1.33
2019-01-31T05:20:49.624Z,1.32
2019-01-31T05:25:52.189Z,1.55
2019-01-31T05:30:55.730Z,1.59
2019-01-31T05:35:59.086Z,1.23
2019-01-31T05:41:02.276Z,1.34
2019-01-31T05:46:05.169Z,1.25
2019-01-31T05:51:08.384Z,1.32
2019-01-31T05:56:10.875Z,1.14
2019-01-31T06:01:14.369Z,1.39
2019-01-31T06:06:17.191Z,1.30
2019-01-31T06:11:20.042Z,1.25
2019-01-31T06:16:22.895Z,1.15
2019-01-31T06:21:26.082Z,1.21
2019-01-31T06:26:29.638Z,1.29
2019-01-31T06:31:33.131Z,0.96
2019-01-31T06:36:35.353Z,0.94
2019-01-31T06:41:38.201Z,1.18
2019-01-31T06:46:41.540Z,0.87
2019-01-31T06:51:44.745Z,0.83
2019-01-31T06:56:48.319Z,0.81
2019-01-31T07:01:51.895Z,0.85
2019-01-31T07:06:55.203Z,0.87
2019-01-31T07:11:58.413Z,0.78
2019-01-31T07:17:01.978Z,0.84
2019-01-31T07:22:05.111Z,0.80
2019-01-31T07:27:07.645Z,0.81
2019-01-31T07:32:10.633Z,1.00
2019-01-31T07:37:13.551Z,1.02
2019-01-31T07:42:16.799Z,1.15
2019-01-31T07:47:19.726Z,1.43
2019-01-31T07:52:22.962Z,1.37
2019-01-31T07:57:26.466Z,1.27
2019-01-31T08:02:29.682Z,1.17
2019-01-31T08:07:32.906Z,1.30
2019-01-31T08:12:37.378Z,1.63
2019-01-31T08:17:40.647Z,1.71
2019-01-31T08:22:44.181Z,1.55
2019-01-31T08:27:48.363Z,1.43
2019-01-31T08:32:51.512Z,1.43
2019-01-31T08:37:54.735Z,1.54
2019-01-31T08:42:57.951Z,1.60
2019-01-31T08:48:01.342Z,1.53
2019-01-31T08:53:04.554Z,1.53
2019-01-31T08:58:07.107Z,1.79
2019-01-31T09:03:09.656Z,1.67
2019-01-31T09:08:12.652Z,1.58
2019-01-31T09:13:15.981Z,1.62
2019-01-31T09:18:19.271Z,1.53
2019-01-31T09:23:47.570Z,1.84
2019-01-31T09:29:21.737Z,1.66
2019-01-31T09:35:05.084Z,1.65
2019-01-31T09:40:31.666Z,1.78
2019-01-31T09:46:00.367Z,1.57
2019-01-31T09:51:54.119Z,1.63
2019-01-31T09:57:29.580Z,1.75
2019-01-31T10:03:07.959Z,1.78
2019-01-31T10:08:33.964Z,1.75
2019-01-31T10:14:12.891Z,1.90
2019-01-31T10:19:40.219Z,1.84
2019-01-31T10:25:05.078Z,2.00
2019-01-31T10:30:26.502Z,2.27
2019-01-31T10:36:13.019Z,2.24
2019-01-31T10:41:57.548Z,2.03
2019-01-31T10:47:32.739Z,2.24
2019-01-31T10:53:07.714Z,1.94
2019-01-31T10:58:45.933Z,2.06
2019-01-31T11:04:30.773Z,2.00
2019-01-31T11:10:30.109Z,2.14
2019-01-31T11:16:03.825Z,2.33
2019-01-31T11:21:40.163Z,2.49
2019-01-31T11:27:20.247Z,2.39
2019-01-31T11:33:19.110Z,2.41
2019-01-31T11:38:45.010Z,2.41
2019-01-31T11:44:26.818Z,2.36
2019-01-31T11:50:07.012Z,2.37
2019-01-31T11:55:20.172Z,2.33
2019-01-31T12:00:24.910Z,2.32
2019-01-31T12:05:27.736Z,2.40
2019-01-31T12:10:31.047Z,2.43
2019-01-31T12:15:35.100Z,2.27
2019-01-31T12:20:38.318Z,2.25
2019-01-31T12:25:41.381Z,2.15
2019-01-31T12:30:43.881Z,2.09
2019-01-31T12:35:47.191Z,2.17
2019-01-31T12:40:50.359Z,2.31
2019-01-31T12:45:53.714Z,2.22
2019-01-31T12:50:57.109Z,2.28
2019-01-31T12:56:00.457Z,2.33
2019-01-31T13:01:04.213Z,2.24
2019-01-31T13:06:06.775Z,2.29
2019-01-31T13:11:09.538Z,2.37
2019-01-31T13:16:12.621Z,2.18
2019-01-31T13:21:16.219Z,2.18
2019-01-31T13:26:19.481Z,2.15
2019-01-31T13:31:22.395Z,2.14
2019-01-31T13:36:25.946Z,2.19
2019-01-31T13:41:29.220Z,2.27
2019-01-31T13:46:32.384Z,2.16
2019-01-31T13:51:34.932Z,2.21
2019-01-31T13:56:45.791Z,2.20
2019-01-31T14:01:44.865Z,2.18
2019-01-31T14:06:47.854Z,2.21
2019-01-31T14:11:51.152Z,2.18
2019-01-31T14:17:01.284Z,2.11
2019-01-31T14:22:04.373Z,2.24
2019-01-31T14:27:07.460Z,2.27
2019-01-31T14:32:10.336Z,2.23
2019-01-31T14:37:13.643Z,2.19
2019-01-31T14:42:16.546Z,2.21
2019-01-31T14:47:19.775Z,2.31
2019-01-31T14:52:22.667Z,2.41
2019-01-31T14:57:25.979Z,2.48
2019-01-31T15:02:28.876Z,2.46
2019-01-31T15:07:31.777Z,2.67
2019-01-31T15:12:35.008Z,2.82
2019-01-31T15:17:38.201Z,3.20
2019-01-31T15:22:41.537Z,3.35
2019-01-31T15:27:44.170Z,3.41
2019-01-31T15:32:47.953Z,3.60
2019-01-31T15:37:52.058Z,3.62
2019-01-31T15:42:55.301Z,3.36
2019-01-31T15:47:58.890Z,3.20
2019-01-31T15:53:01.642Z,3.10
2019-01-31T15:58:05.846Z,2.96
2019-01-31T16:03:10.829Z,2.87
2019-01-31T16:08:14.648Z,2.81
2019-01-31T16:13:18.349Z,2.71
2019-01-31T16:18:21.462Z,2.66
2019-01-31T16:23:25.377Z,2.57
2019-01-31T16:28:28.883Z,2.49
2019-01-31T16:33:31.824Z,2.43
2019-01-31T16:38:36.440Z,2.34
2019-01-31T16:43:39.729Z,2.31
2019-01-31T16:48:43.021Z,2.32
2019-01-31T16:53:46.850Z,2.30
2019-01-31T16:58:50.123Z,2.35
2019-01-31T17:03:53.414Z,2.30
2019-01-31T17:08:56.620Z,2.10
2019-01-31T17:14:00.109Z,2.11
2019-01-31T17:19:03.779Z,2.10
2019-01-31T17:24:06.957Z,2.09
2019-01-31T17:29:11.384Z,2.08
2019-01-31T17:34:14.695Z,1.98
2019-01-31T17:39:17.599Z,2.16
2019-01-31T17:44:20.890Z,2.05
2019-01-31T17:49:24.090Z,1.96
2019-01-31T17:54:26.992Z,1.88
2019-01-31T17:59:29.941Z,1.81
2019-01-31T18:04:33.575Z,1.79
2019-01-31T18:09:36.880Z,1.74
2019-01-31T18:14:40.195Z,1.58
2019-01-31T18:19:43.501Z,1.69
2019-01-31T18:24:47.273Z,1.75
2019-01-31T18:29:50.530Z,1.65
2019-01-31T18:34:54.049Z,1.73
2019-01-31T18:39:58.700Z,1.68
2019-01-31T18:45:02.456Z,1.72
2019-01-31T18:50:08.531Z,1.42
2019-01-31T18:55:12.053Z,1.39
2019-01-31T19:00:23.354Z,1.36
2019-01-31T19:05:27.697Z,1.56
2019-01-31T19:10:42.976Z,1.59
2019-01-31T19:15:40.574Z,1.52
2019-01-31T19:20:44.426Z,1.45
2019-01-31T19:25:49.560Z,1.74
2019-01-31T19:30:55.071Z,1.53
2019-01-31T19:35:59.870Z,1.52
2019-01-31T19:41:05.291Z,1.57
2019-01-31T19:46:16.444Z,1.55
2019-01-31T19:51:22.382Z,1.46
2019-01-31T19:56:29.207Z,1.45
2019-01-31T20:01:36.126Z,1.46
2019-01-31T20:06:43.466Z,1.54
2019-01-31T20:11:50.932Z,1.39
2019-01-31T20:16:56.398Z,1.36
2019-01-31T20:22:01.881Z,1.37
2019-01-31T20:27:06.355Z,1.46
2019-01-31T20:32:13.284Z,1.42
2019-01-31T20:37:18.790Z,1.45
2019-01-31T20:42:24.755Z,1.29
2019-01-31T20:47:32.287Z,1.33
2019-01-31T20:52:39.832Z,1.37
2019-01-31T20:57:45.042Z,1.49
2019-01-31T21:02:51.285Z,1.36
2019-01-31T21:07:59.081Z,1.41
2019-01-31T21:13:06.876Z,1.22
2019-01-31T21:18:13.442Z,1.32
2019-01-31T21:23:18.404Z,1.31
2019-01-31T21:28:22.307Z,1.25
2019-01-31T21:33:26.525Z,1.24
2019-01-31T21:38:30.410Z,1.20
2019-01-31T21:43:33.828Z,1.32
2019-01-31T21:48:37.675Z,1.33
2019-01-31T21:53:41.558Z,1.19
2019-01-31T21:58:44.746Z,1.23
2019-01-31T22:03:48.100Z,1.22
2019-01-31T22:08:51.590Z,1.21
2019-01-31T22:13:55.178Z,1.17
2019-01-31T22:18:58.371Z,1.16
2019-01-31T22:24:01.453Z,1.12
2019-01-31T22:29:04.543Z,1.13
2019-01-31T22:34:07.508Z,1.19
2019-01-31T22:39:10.770Z,1.13
2019-01-31T22:44:13.623Z,1.07
2019-01-31T22:49:17.211Z,1.07
2019-01-31T22:54:20.465Z,1.17
2019-01-31T22:59:23.730Z,0.80
2019-01-31T23:04:27.391Z,0.96
2019-01-31T23:09:32.196Z,0.91
2019-01-31T23:14:35.452Z,1.05
2019-01-31T23:19:38.693Z,0.87
2019-01-31T23:24:42.173Z,0.90
2019-01-31T23:29:45.077Z,0.94
2019-01-31T23:34:48.279Z,1.02
2019-01-31T23:39:50.781Z,0.95
2019-01-31T23:44:54.011Z,0.97
2019-01-31T23:49:57.544Z,0.97
2019-01-31T23:55:01.014Z,0.89
